sensor_id;sensor_type;location;lat;lon;timestamp;temperature;humidity
75987;DHT22;75291;44.670;37.810;2024-01-15T00:00:13;6.64;63.54
75987;DHT22;75291;44.670;37.810;2024-01-15T00:01:35;6.61;63.31
75987;DHT22;75291;44.670;37.810;2024-01-15T00:02:38;6.66;62.54
75987;DHT22;75291;44.670;37.810;2024-01-15T00:03:41;6.69;63.37
75987;DHT22;75291;44.670;37.810;2024-01-15T00:04:45;6.68;63.66
75987;DHT22;75291;44.670;37.810;2024-01-15T00:05:48;6.67;64.01
75987;DHT22;75291;44.670;37.810;2024-01-15T00:06:51;6.60;64.28
75987;DHT22;75291;44.670;37.810;2024-01-15T00:09:16;6.54;65.08
75987;DHT22;75291;44.670;37.810;2024-01-15T00:10:19;6.53;63.77
75987;DHT22;75291;44.670;37.810;2024-01-15T00:11:22;6.59;64.55
75987;DHT22;75291;44.670;37.810;2024-01-15T00:12:25;6.60;63.91
75987;DHT22;75291;44.670;37.810;2024-01-15T00:13:29;6.63;64.36
75987;DHT22;75291;44.670;37.810;2024-01-15T00:14:32;6.67;64.08
75987;DHT22;75291;44.670;37.810;2024-01-15T00:15:35;6.65;64.61
75987;DHT22;75291;44.670;37.810;2024-01-15T00:16:40;6.63;65.04
75987;DHT22;75291;44.670;37.810;2024-01-15T00:17:43;6.56;66.08
75987;DHT22;75291;44.670;37.810;2024-01-15T00:19:05;6.51;67.12
75987;DHT22;75291;44.670;37.810;2024-01-15T00:20:08;6.49;65.82
75987;DHT22;75291;44.670;37.810;2024-01-15T00:21:12;6.50;66.37
75987;DHT22;75291;44.670;37.810;2024-01-15T00:23:55;6.53;66.94
75987;DHT22;75291;44.670;37.810;2024-01-15T00:24:58;6.49;67.87
75987;DHT22;75291;44.670;37.810;2024-01-15T00:26:01;6.44;67.84
75987;DHT22;75291;44.670;37.810;2024-01-15T00:27:05;6.39;69.07
75987;DHT22;75291;44.670;37.810;2024-01-15T00:28:08;6.37;68.89
75987;DHT22;75291;44.670;37.810;2024-01-15T00:29:11;6.39;68.33
75987;DHT22;75291;44.670;37.810;2024-01-15T00:30:14;6.39;68.39
75987;DHT22;75291;44.670;37.810;2024-01-15T00:31:17;6.41;68.18
75987;DHT22;75291;44.670;37.810;2024-01-15T00:32:21;6.42;68.10
75987;DHT22;75291;44.670;37.810;2024-01-15T00:33:24;6.43;68.55
75987;DHT22;75291;44.670;37.810;2024-01-15T00:34:27;6.43;69.09
75987;DHT22;75291;44.670;37.810;2024-01-15T00:36:52;6.42;69.17
75987;DHT22;75291;44.670;37.810;2024-01-15T00:37:55;6.39;70.64
75987;DHT22;75291;44.670;37.810;2024-01-15T00:38:58;6.37;70.59
75987;DHT22;75291;44.670;37.810;2024-01-15T00:40:02;6.40;70.52
75987;DHT22;75291;44.670;37.810;2024-01-15T00:42:26;6.48;70.92
75987;DHT22;75291;44.670;37.810;2024-01-15T00:43:30;6.50;70.52
75987;DHT22;75291;44.670;37.810;2024-01-15T00:44:33;6.46;70.64
75987;DHT22;75291;44.670;37.810;2024-01-15T00:45:36;6.49;70.93
75987;DHT22;75291;44.670;37.810;2024-01-15T00:46:45;6.49;72.29
75987;DHT22;75291;44.670;37.810;2024-01-15T00:47:49;6.50;70.80
75987;DHT22;75291;44.670;37.810;2024-01-15T00:48:52;6.56;69.70
75987;DHT22;75291;44.670;37.810;2024-01-15T00:49:55;6.59;69.68
75987;DHT22;75291;44.670;37.810;2024-01-15T00:50:58;6.63;69.41
75987;DHT22;75291;44.670;37.810;2024-01-15T00:52:01;6.69;66.62
75987;DHT22;75291;44.670;37.810;2024-01-15T00:53:05;6.78;65.75
75987;DHT22;75291;44.670;37.810;2024-01-15T00:54:26;6.82;64.30
75987;DHT22;75291;44.670;37.810;2024-01-15T00:55:29;6.83;64.27
75987;DHT22;75291;44.670;37.810;2024-01-15T00:56:32;6.82;62.81
75987;DHT22;75291;44.670;37.810;2024-01-15T00:57:35;6.85;61.50
75987;DHT22;75291;44.670;37.810;2024-01-15T00:58:39;6.89;63.21
75987;DHT22;75291;44.670;37.810;2024-01-15T00:59:42;6.87;63.69
75987;DHT22;75291;44.670;37.810;2024-01-15T01:00:45;6.87;62.81
75987;DHT22;75291;44.670;37.810;2024-01-15T01:01:48;6.89;62.81
75987;DHT22;75291;44.670;37.810;2024-01-15T01:02:51;6.86;63.16
75987;DHT22;75291;44.670;37.810;2024-01-15T01:03:54;6.87;61.91
75987;DHT22;75291;44.670;37.810;2024-01-15T01:04:57;6.91;61.21
75987;DHT22;75291;44.670;37.810;2024-01-15T01:06:00;6.93;59.55
75987;DHT22;75291;44.670;37.810;2024-01-15T01:07:03;6.96;59.87
75987;DHT22;75291;44.670;37.810;2024-01-15T01:08:06;6.97;59.12
75987;DHT22;75291;44.670;37.810;2024-01-15T01:09:10;6.96;59.85
75987;DHT22;75291;44.670;37.810;2024-01-15T01:11:34;6.96;60.70
75987;DHT22;75291;44.670;37.810;2024-01-15T01:12:37;6.94;59.45
75987;DHT22;75291;44.670;37.810;2024-01-15T01:13:40;6.95;59.09
75987;DHT22;75291;44.670;37.810;2024-01-15T01:14:43;6.95;58.58
75987;DHT22;75291;44.670;37.810;2024-01-15T01:15:46;7.01;57.12
75987;DHT22;75291;44.670;37.810;2024-01-15T01:16:50;7.00;58.61
75987;DHT22;75291;44.670;37.810;2024-01-15T01:17:53;7.01;57.57
75987;DHT22;75291;44.670;37.810;2024-01-15T01:18:56;6.99;57.67
75987;DHT22;75291;44.670;37.810;2024-01-15T01:19:59;6.99;57.71
75987;DHT22;75291;44.670;37.810;2024-01-15T01:21:21;6.98;56.54
75987;DHT22;75291;44.670;37.810;2024-01-15T01:22:24;6.98;58.06
75987;DHT22;75291;44.670;37.810;2024-01-15T01:23:27;6.98;56.85
75987;DHT22;75291;44.670;37.810;2024-01-15T01:24:30;7.00;55.68
75987;DHT22;75291;44.670;37.810;2024-01-15T01:25:33;7.03;54.50
75987;DHT22;75291;44.670;37.810;2024-01-15T01:26:55;7.07;54.02
75987;DHT22;75291;44.670;37.810;2024-01-15T01:27:58;7.07;54.30
75987;DHT22;75291;44.670;37.810;2024-01-15T01:29:01;7.07;53.05
75987;DHT22;75291;44.670;37.810;2024-01-15T01:30:05;7.08;53.40
75987;DHT22;75291;44.670;37.810;2024-01-15T01:31:08;7.08;54.49
75987;DHT22;75291;44.670;37.810;2024-01-15T01:32:11;7.05;55.06
75987;DHT22;75291;44.670;37.810;2024-01-15T01:34:40;7.04;55.57
75987;DHT22;75291;44.670;37.810;2024-01-15T01:35:45;7.04;54.98
75987;DHT22;75291;44.670;37.810;2024-01-15T01:36:49;7.04;54.30
75987;DHT22;75291;44.670;37.810;2024-01-15T01:38:11;7.02;53.88
75987;DHT22;75291;44.670;37.810;2024-01-15T01:39:15;7.07;51.88
75987;DHT22;75291;44.670;37.810;2024-01-15T01:40:18;7.02;52.59
75987;DHT22;75291;44.670;37.810;2024-01-15T01:41:21;7.03;51.94
75987;DHT22;75291;44.670;37.810;2024-01-15T01:42:27;7.02;53.27
75987;DHT22;75291;44.670;37.810;2024-01-15T01:43:30;7.01;53.30
75987;DHT22;75291;44.670;37.810;2024-01-15T01:44:33;7.02;53.30
75987;DHT22;75291;44.670;37.810;2024-01-15T01:45:37;6.99;54.39
75987;DHT22;75291;44.670;37.810;2024-01-15T01:46:41;7.00;53.54
75987;DHT22;75291;44.670;37.810;2024-01-15T01:47:44;7.03;54.45
75987;DHT22;75291;44.670;37.810;2024-01-15T01:48:48;7.02;55.52
75987;DHT22;75291;44.670;37.810;2024-01-15T01:49:51;7.00;55.10
75987;DHT22;75291;44.670;37.810;2024-01-15T01:51:13;6.95;55.90
75987;DHT22;75291;44.670;37.810;2024-01-15T01:52:16;6.95;55.43
75987;DHT22;75291;44.670;37.810;2024-01-15T01:53:20;6.96;55.88
75987;DHT22;75291;44.670;37.810;2024-01-15T01:54:25;6.93;56.21
75987;DHT22;75291;44.670;37.810;2024-01-15T01:55:30;6.97;54.79
75987;DHT22;75291;44.670;37.810;2024-01-15T01:57:57;6.99;54.71
75987;DHT22;75291;44.670;37.810;2024-01-15T01:59:02;7.00;55.10
75987;DHT22;75291;44.670;37.810;2024-01-15T02:00:06;7.02;55.23
75987;DHT22;75291;44.670;37.810;2024-01-15T02:01:15;6.99;56.00
75987;DHT22;75291;44.670;37.810;2024-01-15T02:02:20;7.01;56.11
75987;DHT22;75291;44.670;37.810;2024-01-15T02:03:24;7.02;56.37
75987;DHT22;75291;44.670;37.810;2024-01-15T02:04:28;7.00;56.01
75987;DHT22;75291;44.670;37.810;2024-01-15T02:05:33;7.03;55.26
75987;DHT22;75291;44.670;37.810;2024-01-15T02:06:36;7.07;54.87
75987;DHT22;75291;44.670;37.810;2024-01-15T02:07:40;7.10;54.59
75987;DHT22;75291;44.670;37.810;2024-01-15T02:08:44;7.15;54.20
75987;DHT22;75291;44.670;37.810;2024-01-15T02:09:47;7.16;54.59
75987;DHT22;75291;44.670;37.810;2024-01-15T02:10:51;7.17;54.90
75987;DHT22;75291;44.670;37.810;2024-01-15T02:12:12;7.18;55.61
75987;DHT22;75291;44.670;37.810;2024-01-15T02:13:16;7.18;55.65
75987;DHT22;75291;44.670;37.810;2024-01-15T02:14:20;7.17;55.35
75987;DHT22;75291;44.670;37.810;2024-01-15T02:15:26;7.19;55.95
75987;DHT22;75291;44.670;37.810;2024-01-15T02:16:29;7.19;56.29
75987;DHT22;75291;44.670;37.810;2024-01-15T02:17:32;7.23;56.52
75987;DHT22;75291;44.670;37.810;2024-01-15T02:18:42;7.25;55.49
75987;DHT22;75291;44.670;37.810;2024-01-15T02:19:46;7.27;56.28
75987;DHT22;75291;44.670;37.810;2024-01-15T02:20:49;7.26;56.77
75987;DHT22;75291;44.670;37.810;2024-01-15T02:21:52;7.29;55.89
75987;DHT22;75291;44.670;37.810;2024-01-15T02:23:09;7.30;55.76
75987;DHT22;75291;44.670;37.810;2024-01-15T02:24:15;7.33;55.62
75987;DHT22;75291;44.670;37.810;2024-01-15T02:25:18;7.34;55.66
75987;DHT22;75291;44.670;37.810;2024-01-15T02:26:22;7.38;55.04
75987;DHT22;75291;44.670;37.810;2024-01-15T02:27:25;7.41;54.97
75987;DHT22;75291;44.670;37.810;2024-01-15T02:28:29;7.40;55.68
75987;DHT22;75291;44.670;37.810;2024-01-15T02:29:32;7.42;55.78
75987;DHT22;75291;44.670;37.810;2024-01-15T02:30:40;7.44;54.89
75987;DHT22;75291;44.670;37.810;2024-01-15T02:31:44;7.43;54.71
75987;DHT22;75291;44.670;37.810;2024-01-15T02:32:47;7.47;54.77
75987;DHT22;75291;44.670;37.810;2024-01-15T02:33:50;7.50;54.13
75987;DHT22;75291;44.670;37.810;2024-01-15T02:34:54;7.55;54.35
75987;DHT22;75291;44.670;37.810;2024-01-15T02:35:58;7.54;56.52
75987;DHT22;75291;44.670;37.810;2024-01-15T02:37:02;7.49;55.42
75987;DHT22;75291;44.670;37.810;2024-01-15T02:38:23;7.48;56.32
75987;DHT22;75291;44.670;37.810;2024-01-15T02:39:27;7.47;56.63
75987;DHT22;75291;44.670;37.810;2024-01-15T02:40:32;7.48;56.65
75987;DHT22;75291;44.670;37.810;2024-01-15T02:41:35;7.47;56.26
75987;DHT22;75291;44.670;37.810;2024-01-15T02:42:38;7.47;57.16
75987;DHT22;75291;44.670;37.810;2024-01-15T02:43:42;7.46;56.95
75987;DHT22;75291;44.670;37.810;2024-01-15T02:46:07;7.45;56.38
75987;DHT22;75291;44.670;37.810;2024-01-15T02:47:10;7.48;56.08
75987;DHT22;75291;44.670;37.810;2024-01-15T02:48:32;7.44;56.58
75987;DHT22;75291;44.670;37.810;2024-01-15T02:49:36;7.46;56.81
75987;DHT22;75291;44.670;37.810;2024-01-15T02:50:40;7.47;56.42
75987;DHT22;75291;44.670;37.810;2024-01-15T02:51:43;7.47;56.77
75987;DHT22;75291;44.670;37.810;2024-01-15T02:53:05;7.53;56.77
75987;DHT22;75291;44.670;37.810;2024-01-15T02:54:09;7.53;56.88
75987;DHT22;75291;44.670;37.810;2024-01-15T02:55:31;7.50;58.31
75987;DHT22;75291;44.670;37.810;2024-01-15T02:56:34;7.52;57.09
75987;DHT22;75291;44.670;37.810;2024-01-15T02:57:38;7.54;57.09
75987;DHT22;75291;44.670;37.810;2024-01-15T03:00:03;7.55;57.64
75987;DHT22;75291;44.670;37.810;2024-01-15T03:01:07;7.56;57.12
75987;DHT22;75291;44.670;37.810;2024-01-15T03:02:13;7.59;57.03
75987;DHT22;75291;44.670;37.810;2024-01-15T03:03:16;7.58;57.42
75987;DHT22;75291;44.670;37.810;2024-01-15T03:04:19;7.58;57.67
75987;DHT22;75291;44.670;37.810;2024-01-15T03:05:23;7.59;57.48
75987;DHT22;75291;44.670;37.810;2024-01-15T03:06:26;7.60;57.52
75987;DHT22;75291;44.670;37.810;2024-01-15T03:07:30;7.59;57.75
75987;DHT22;75291;44.670;37.810;2024-01-15T03:08:33;7.60;57.68
75987;DHT22;75291;44.670;37.810;2024-01-15T03:11:00;7.55;58.29
75987;DHT22;75291;44.670;37.810;2024-01-15T03:12:04;7.55;57.93
75987;DHT22;75291;44.670;37.810;2024-01-15T03:13:07;7.50;57.84
75987;DHT22;75291;44.670;37.810;2024-01-15T03:14:11;7.50;58.54
75987;DHT22;75291;44.670;37.810;2024-01-15T03:15:32;7.47;58.99
75987;DHT22;75291;44.670;37.810;2024-01-15T03:16:36;7.44;58.96
75987;DHT22;75291;44.670;37.810;2024-01-15T03:17:41;7.43;59.47
75987;DHT22;75291;44.670;37.810;2024-01-15T03:18:45;7.42;59.93
75987;DHT22;75291;44.670;37.810;2024-01-15T03:19:49;7.41;59.99
75987;DHT22;75291;44.670;37.810;2024-01-15T03:20:55;7.39;60.95
75987;DHT22;75291;44.670;37.810;2024-01-15T03:22:35;7.30;63.40
75987;DHT22;75291;44.670;37.810;2024-01-15T03:23:38;7.25;63.97
75987;DHT22;75291;44.670;37.810;2024-01-15T03:24:42;7.17;64.39
75987;DHT22;75291;44.670;37.810;2024-01-15T03:25:45;7.11;65.32
75987;DHT22;75291;44.670;37.810;2024-01-15T03:26:49;7.08;66.01
75987;DHT22;75291;44.670;37.810;2024-01-15T03:27:52;7.04;65.50
75987;DHT22;75291;44.670;37.810;2024-01-15T03:29:13;7.00;66.02
75987;DHT22;75291;44.670;37.810;2024-01-15T03:30:17;6.99;65.77
75987;DHT22;75291;44.670;37.810;2024-01-15T03:31:20;6.98;66.61
75987;DHT22;75291;44.670;37.810;2024-01-15T03:32:24;6.96;66.05
75987;DHT22;75291;44.670;37.810;2024-01-15T03:33:27;6.95;66.17
75987;DHT22;75291;44.670;37.810;2024-01-15T03:34:30;6.96;65.40
75987;DHT22;75291;44.670;37.810;2024-01-15T03:35:34;6.97;65.59
75987;DHT22;75291;44.670;37.810;2024-01-15T03:36:37;6.97;65.93
75987;DHT22;75291;44.670;37.810;2024-01-15T03:37:41;6.98;65.60
75987;DHT22;75291;44.670;37.810;2024-01-15T03:38:44;6.98;65.52
75987;DHT22;75291;44.670;37.810;2024-01-15T03:39:47;7.00;65.78
75987;DHT22;75291;44.670;37.810;2024-01-15T03:40:51;7.01;66.16
75987;DHT22;75291;44.670;37.810;2024-01-15T03:41:55;6.99;67.47
75987;DHT22;75291;44.670;37.810;2024-01-15T03:42:58;6.98;67.46
75987;DHT22;75291;44.670;37.810;2024-01-15T03:44:01;6.96;67.43
75987;DHT22;75291;44.670;37.810;2024-01-15T03:45:05;6.95;67.81
75987;DHT22;75291;44.670;37.810;2024-01-15T03:46:09;6.94;67.82
75987;DHT22;75291;44.670;37.810;2024-01-15T03:47:12;6.94;67.61
75987;DHT22;75291;44.670;37.810;2024-01-15T03:48:15;6.91;68.04
75987;DHT22;75291;44.670;37.810;2024-01-15T03:49:39;6.91;69.47
75987;DHT22;75291;44.670;37.810;2024-01-15T03:50:42;6.89;68.99
75987;DHT22;75291;44.670;37.810;2024-01-15T03:51:45;6.89;69.31
75987;DHT22;75291;44.670;37.810;2024-01-15T03:52:49;6.86;69.58
75987;DHT22;75291;44.670;37.810;2024-01-15T03:53:52;6.84;69.92
75987;DHT22;75291;44.670;37.810;2024-01-15T03:54:55;6.83;70.02
75987;DHT22;75291;44.670;37.810;2024-01-15T03:56:17;6.78;70.90
75987;DHT22;75291;44.670;37.810;2024-01-15T03:57:20;6.74;72.09
75987;DHT22;75291;44.670;37.810;2024-01-15T03:58:24;6.66;72.75
75987;DHT22;75291;44.670;37.810;2024-01-15T03:59:46;6.56;73.64
75987;DHT22;75291;44.670;37.810;2024-01-15T04:00:50;6.51;74.78
75987;DHT22;75291;44.670;37.810;2024-01-15T04:01:53;6.41;75.56
75987;DHT22;75291;44.670;37.810;2024-01-15T04:02:56;6.35;75.90
75987;DHT22;75291;44.670;37.810;2024-01-15T04:04:00;6.34;75.59
75987;DHT22;75291;44.670;37.810;2024-01-15T04:05:03;6.30;75.92
75987;DHT22;75291;44.670;37.810;2024-01-15T04:06:09;6.26;76.07
75987;DHT22;75291;44.670;37.810;2024-01-15T04:07:12;6.25;75.75
75987;DHT22;75291;44.670;37.810;2024-01-15T04:08:16;6.24;76.11
75987;DHT22;75291;44.670;37.810;2024-01-15T04:09:19;6.23;76.08
75987;DHT22;75291;44.670;37.810;2024-01-15T04:10:22;6.23;76.98
75987;DHT22;75291;44.670;37.810;2024-01-15T04:11:26;6.23;76.07
75987;DHT22;75291;44.670;37.810;2024-01-15T04:12:29;6.23;76.16
75987;DHT22;75291;44.670;37.810;2024-01-15T04:13:33;6.25;75.89
75987;DHT22;75291;44.670;37.810;2024-01-15T04:14:36;6.23;75.89
75987;DHT22;75291;44.670;37.810;2024-01-15T04:15:40;6.23;75.94
75987;DHT22;75291;44.670;37.810;2024-01-15T04:17:02;6.23;76.60
75987;DHT22;75291;44.670;37.810;2024-01-15T04:18:05;6.22;76.77
75987;DHT22;75291;44.670;37.810;2024-01-15T04:19:08;6.21;77.18
75987;DHT22;75291;44.670;37.810;2024-01-15T04:20:11;6.19;77.15
75987;DHT22;75291;44.670;37.810;2024-01-15T04:21:17;6.19;77.36
75987;DHT22;75291;44.670;37.810;2024-01-15T04:22:21;6.16;77.62
75987;DHT22;75291;44.670;37.810;2024-01-15T04:23:24;6.14;78.05
75987;DHT22;75291;44.670;37.810;2024-01-15T04:24:28;6.12;78.10
75987;DHT22;75291;44.670;37.810;2024-01-15T04:25:31;6.09;78.79
75987;DHT22;75291;44.670;37.810;2024-01-15T04:26:34;6.05;79.01
75987;DHT22;75291;44.670;37.810;2024-01-15T04:27:38;5.98;79.72
75987;DHT22;75291;44.670;37.810;2024-01-15T04:28:41;5.91;79.38
75987;DHT22;75291;44.670;37.810;2024-01-15T04:29:44;5.84;79.88
75987;DHT22;75291;44.670;37.810;2024-01-15T04:30:48;5.80;80.17
75987;DHT22;75291;44.670;37.810;2024-01-15T04:31:53;5.76;80.10
75987;DHT22;75291;44.670;37.810;2024-01-15T04:32:56;5.71;80.30
75987;DHT22;75291;44.670;37.810;2024-01-15T04:33:59;5.69;80.89
75987;DHT22;75291;44.670;37.810;2024-01-15T04:35:03;5.66;81.12
75987;DHT22;75291;44.670;37.810;2024-01-15T04:36:06;5.63;81.33
75987;DHT22;75291;44.670;37.810;2024-01-15T04:38:31;5.56;82.06
75987;DHT22;75291;44.670;37.810;2024-01-15T04:39:35;5.55;81.69
75987;DHT22;75291;44.670;37.810;2024-01-15T04:40:38;5.55;81.94
75987;DHT22;75291;44.670;37.810;2024-01-15T04:42:01;5.54;82.65
75987;DHT22;75291;44.670;37.810;2024-01-15T04:43:04;5.54;82.97
75987;DHT22;75291;44.670;37.810;2024-01-15T04:44:08;5.56;83.47
75987;DHT22;75291;44.670;37.810;2024-01-15T04:45:11;5.56;83.57
75987;DHT22;75291;44.670;37.810;2024-01-15T04:46:14;5.59;83.41
75987;DHT22;75291;44.670;37.810;2024-01-15T04:47:17;5.60;83.45
75987;DHT22;75291;44.670;37.810;2024-01-15T04:48:21;5.63;83.63
75987;DHT22;75291;44.670;37.810;2024-01-15T04:49:25;5.65;83.40
75987;DHT22;75291;44.670;37.810;2024-01-15T04:50:32;5.68;83.14
75987;DHT22;75291;44.670;37.810;2024-01-15T04:52:56;5.75;83.38
75987;DHT22;75291;44.670;37.810;2024-01-15T04:53:59;5.77;83.21
75987;DHT22;75291;44.670;37.810;2024-01-15T04:55:03;5.77;83.02
75987;DHT22;75291;44.670;37.810;2024-01-15T04:56:06;5.80;82.47
75987;DHT22;75291;44.670;37.810;2024-01-15T04:57:09;5.83;82.70
75987;DHT22;75291;44.670;37.810;2024-01-15T04:58:12;5.84;83.04
75987;DHT22;75291;44.670;37.810;2024-01-15T04:59:15;5.84;82.85
75987;DHT22;75291;44.670;37.810;2024-01-15T05:00:19;5.86;83.23
75987;DHT22;75291;44.670;37.810;2024-01-15T05:01:22;5.86;83.29
75987;DHT22;75291;44.670;37.810;2024-01-15T05:02:25;5.89;82.65
75987;DHT22;75291;44.670;37.810;2024-01-15T05:03:30;5.89;82.46
75987;DHT22;75291;44.670;37.810;2024-01-15T05:04:33;5.91;82.13
75987;DHT22;75291;44.670;37.810;2024-01-15T05:05:57;5.93;82.35
75987;DHT22;75291;44.670;37.810;2024-01-15T05:07:01;5.94;82.71
75987;DHT22;75291;44.670;37.810;2024-01-15T05:08:04;5.91;82.72
75987;DHT22;75291;44.670;37.810;2024-01-15T05:09:07;5.95;83.03
75987;DHT22;75291;44.670;37.810;2024-01-15T05:10:10;5.95;83.16
75987;DHT22;75291;44.670;37.810;2024-01-15T05:11:13;5.95;82.76
75987;DHT22;75291;44.670;37.810;2024-01-15T05:12:17;5.95;82.66
75987;DHT22;75291;44.670;37.810;2024-01-15T05:13:20;5.91;82.65
75987;DHT22;75291;44.670;37.810;2024-01-15T05:15:45;5.87;82.93
75987;DHT22;75291;44.670;37.810;2024-01-15T05:17:07;5.84;82.46
75987;DHT22;75291;44.670;37.810;2024-01-15T05:19:52;5.84;83.16
75987;DHT22;75291;44.670;37.810;2024-01-15T05:20:55;5.99;81.48
75987;DHT22;75291;44.670;37.810;2024-01-15T05:21:58;6.09;80.56
75987;DHT22;75291;44.670;37.810;2024-01-15T05:23:01;6.19;80.24
75987;DHT22;75291;44.670;37.810;2024-01-15T05:24:04;6.31;79.50
75987;DHT22;75291;44.670;37.810;2024-01-15T05:25:07;6.49;78.45
75987;DHT22;75291;44.670;37.810;2024-01-15T05:26:11;6.59;77.56
75987;DHT22;75291;44.670;37.810;2024-01-15T05:27:14;6.70;77.31
75987;DHT22;75291;44.670;37.810;2024-01-15T05:28:17;6.75;76.83
75987;DHT22;75291;44.670;37.810;2024-01-15T05:29:20;6.81;77.23
75987;DHT22;75291;44.670;37.810;2024-01-15T05:30:23;6.86;76.82
75987;DHT22;75291;44.670;37.810;2024-01-15T05:31:26;6.90;76.44
75987;DHT22;75291;44.670;37.810;2024-01-15T05:32:29;6.96;76.53
75987;DHT22;75291;44.670;37.810;2024-01-15T05:33:32;6.96;76.36
75987;DHT22;75291;44.670;37.810;2024-01-15T05:34:36;7.00;75.87
75987;DHT22;75291;44.670;37.810;2024-01-15T05:35:39;7.04;75.41
75987;DHT22;75291;44.670;37.810;2024-01-15T05:36:42;7.11;75.38
75987;DHT22;75291;44.670;37.810;2024-01-15T05:37:45;7.16;75.21
75987;DHT22;75291;44.670;37.810;2024-01-15T05:38:49;7.19;74.91
75987;DHT22;75291;44.670;37.810;2024-01-15T05:39:52;7.24;74.70
75987;DHT22;75291;44.670;37.810;2024-01-15T05:40:55;7.28;74.77
75987;DHT22;75291;44.670;37.810;2024-01-15T05:41:58;7.31;75.69
75987;DHT22;75291;44.670;37.810;2024-01-15T05:43:03;7.35;74.57
75987;DHT22;75291;44.670;37.810;2024-01-15T05:45:29;7.45;76.23
75987;DHT22;75291;44.670;37.810;2024-01-15T05:46:32;7.52;74.80
75987;DHT22;75291;44.670;37.810;2024-01-15T05:47:35;7.56;74.96
75987;DHT22;75291;44.670;37.810;2024-01-15T05:48:38;7.59;75.14
75987;DHT22;75291;44.670;37.810;2024-01-15T05:49:41;7.62;74.65
75987;DHT22;75291;44.670;37.810;2024-01-15T05:50:44;7.67;74.80
75987;DHT22;75291;44.670;37.810;2024-01-15T05:51:47;7.70;74.76
75987;DHT22;75291;44.670;37.810;2024-01-15T05:52:51;7.76;74.73
75987;DHT22;75291;44.670;37.810;2024-01-15T05:55:16;7.88;74.39
75987;DHT22;75291;44.670;37.810;2024-01-15T05:56:21;7.91;74.48
75987;DHT22;75291;44.670;37.810;2024-01-15T05:57:24;7.97;74.04
75987;DHT22;75291;44.670;37.810;2024-01-15T05:58:27;8.04;73.72
75987;DHT22;75291;44.670;37.810;2024-01-15T05:59:30;8.07;73.59
75987;DHT22;75291;44.670;37.810;2024-01-15T06:00:36;8.11;73.51
75987;DHT22;75291;44.670;37.810;2024-01-15T06:01:41;8.15;73.41
75987;DHT22;75291;44.670;37.810;2024-01-15T06:02:44;8.17;73.15
75987;DHT22;75291;44.670;37.810;2024-01-15T06:04:05;8.20;72.99
75987;DHT22;75291;44.670;37.810;2024-01-15T06:05:09;8.22;72.72
75987;DHT22;75291;44.670;37.810;2024-01-15T06:06:12;8.23;72.16
75987;DHT22;75291;44.670;37.810;2024-01-15T06:07:15;8.24;71.42
75987;DHT22;75291;44.670;37.810;2024-01-15T06:08:37;8.27;69.70
75987;DHT22;75291;44.670;37.810;2024-01-15T06:09:40;8.30;69.36
75987;DHT22;75291;44.670;37.810;2024-01-15T06:10:44;8.30;68.92
75987;DHT22;75291;44.670;37.810;2024-01-15T06:12:24;8.31;68.23
75987;DHT22;75291;44.670;37.810;2024-01-15T06:13:27;8.30;67.89
75987;DHT22;75291;44.670;37.810;2024-01-15T06:14:30;8.29;67.59
75987;DHT22;75291;44.670;37.810;2024-01-15T06:15:33;8.27;68.30
75987;DHT22;75291;44.670;37.810;2024-01-15T06:17:58;8.23;68.32
75987;DHT22;75291;44.670;37.810;2024-01-15T06:19:01;8.24;68.39
75987;DHT22;75291;44.670;37.810;2024-01-15T06:20:05;8.23;68.77
75987;DHT22;75291;44.670;37.810;2024-01-15T06:21:08;8.24;68.67
75987;DHT22;75291;44.670;37.810;2024-01-15T06:22:13;8.27;68.39
75987;DHT22;75291;44.670;37.810;2024-01-15T06:23:16;8.26;68.82
75987;DHT22;75291;44.670;37.810;2024-01-15T06:24:20;8.28;68.36
75987;DHT22;75291;44.670;37.810;2024-01-15T06:25:23;8.30;67.43
75987;DHT22;75291;44.670;37.810;2024-01-15T06:26:26;8.32;67.77
75987;DHT22;75291;44.670;37.810;2024-01-15T06:27:29;8.31;68.23
75987;DHT22;75291;44.670;37.810;2024-01-15T06:28:32;8.32;68.82
75987;DHT22;75291;44.670;37.810;2024-01-15T06:30:59;8.26;69.91
75987;DHT22;75291;44.670;37.810;2024-01-15T06:32:02;8.27;69.90
75987;DHT22;75291;44.670;37.810;2024-01-15T06:33:05;8.23;69.74
75987;DHT22;75291;44.670;37.810;2024-01-15T06:34:09;8.28;69.74
75987;DHT22;75291;44.670;37.810;2024-01-15T06:35:15;8.27;69.13
75987;DHT22;75291;44.670;37.810;2024-01-15T06:36:19;8.24;69.13
75987;DHT22;75291;44.670;37.810;2024-01-15T06:37:22;8.23;68.62
75987;DHT22;75291;44.670;37.810;2024-01-15T06:38:26;8.19;69.23
75987;DHT22;75291;44.670;37.810;2024-01-15T06:39:29;8.16;68.98
75987;DHT22;75291;44.670;37.810;2024-01-15T06:40:32;8.13;68.09
75987;DHT22;75291;44.670;37.810;2024-01-15T06:41:36;8.14;68.41
75987;DHT22;75291;44.670;37.810;2024-01-15T06:42:46;8.11;68.40
75987;DHT22;75291;44.670;37.810;2024-01-15T06:43:49;8.09;68.62
75987;DHT22;75291;44.670;37.810;2024-01-15T06:44:53;8.04;69.80
75987;DHT22;75291;44.670;37.810;2024-01-15T06:45:56;8.01;68.75
75987;DHT22;75291;44.670;37.810;2024-01-15T06:46:59;7.98;69.51
75987;DHT22;75291;44.670;37.810;2024-01-15T06:48:05;7.96;69.42
75987;DHT22;75291;44.670;37.810;2024-01-15T06:49:10;7.93;69.05
75987;DHT22;75291;44.670;37.810;2024-01-15T06:50:14;7.90;69.16
75987;DHT22;75291;44.670;37.810;2024-01-15T06:51:17;7.87;68.94
75987;DHT22;75291;44.670;37.810;2024-01-15T06:52:21;7.85;68.81
75987;DHT22;75291;44.670;37.810;2024-01-15T06:53:24;7.84;68.97
75987;DHT22;75291;44.670;37.810;2024-01-15T06:54:46;7.84;68.78
75987;DHT22;75291;44.670;37.810;2024-01-15T06:55:50;7.82;69.39
75987;DHT22;75291;44.670;37.810;2024-01-15T06:57:31;7.84;68.89
75987;DHT22;75291;44.670;37.810;2024-01-15T06:58:34;7.86;69.26
75987;DHT22;75291;44.670;37.810;2024-01-15T06:59:37;7.88;68.78
75987;DHT22;75291;44.670;37.810;2024-01-15T07:00:41;7.89;69.23
75987;DHT22;75291;44.670;37.810;2024-01-15T07:01:44;7.85;69.41
75987;DHT22;75291;44.670;37.810;2024-01-15T07:02:47;7.83;70.24
75987;DHT22;75291;44.670;37.810;2024-01-15T07:03:51;7.78;69.96
75987;DHT22;75291;44.670;37.810;2024-01-15T07:04:54;7.78;70.94
75987;DHT22;75291;44.670;37.810;2024-01-15T07:05:58;7.75;70.97
75987;DHT22;75291;44.670;37.810;2024-01-15T07:07:01;7.71;72.29
75987;DHT22;75291;44.670;37.810;2024-01-15T07:08:05;7.65;72.52
75987;DHT22;75291;44.670;37.810;2024-01-15T07:09:09;7.63;73.15
75987;DHT22;75291;44.670;37.810;2024-01-15T07:10:14;7.62;72.92
75987;DHT22;75291;44.670;37.810;2024-01-15T07:11:17;7.62;72.80
75987;DHT22;75291;44.670;37.810;2024-01-15T07:12:20;7.61;73.58
75987;DHT22;75291;44.670;37.810;2024-01-15T07:13:24;7.60;73.57
75987;DHT22;75291;44.670;37.810;2024-01-15T07:14:45;7.58;74.65
75987;DHT22;75291;44.670;37.810;2024-01-15T07:17:11;7.52;75.05